Terminal Aerodrome Forecast
Issued by NWS

Home | Current Version | Previous Version | Text Only | Print | Product List | Glossary On
Versions: 1 2 3 4 5 6 7 8 9 10 11
000
FTUS45 KCYS 221730
TAFAIA
TAF
KAIA 221730Z 2218/2318 36015KT P6SM SCT050
     FM222000 02015G25KT P6SM BKN100
     FM230000 04012KT P6SM OVC100
     FM230800 34011KT P6SM OVC050=

USA.gov is the U.S. government's official web portal to all federal, state and local government web resources and services.